Time;durP1;ratioP1;P1;durP2;ratioP2;P2;SDS_P1;SDS_P2;PMS_P1;PMS_P2;Temp;Humidity;BMP_temperature;BMP_pressure;BME280_temperature;BME280_humidity;BME280_pressure;Samples;Min_cycle;Max_cycle;Signal;HPM_P1;HPM_P2
2021/10/01 00:01:07;;;;;;;1.73;1.15;;;;;;;;;;5071424;28;20103;-54
2021/10/01 00:03:33;;;;;;;1.35;1.20;;;;;;;;;;5072612;28;20033;-55
2021/10/01 00:05:59;;;;;;;2.42;0.90;;;;;;;;;;5067525;28;20086;-52
2021/10/01 00:08:25;;;;;;;3.17;1.48;;;;;;;;;;5069552;28;20268;-52
2021/10/01 00:10:51;;;;;;;1.45;0.70;;;;;;;;;;5072732;28;20107;-54
2021/10/01 00:13:18;;;;;;;2.17;0.90;;;;;;;;;;5072605;28;20496;-55
2021/10/01 00:15:44;;;;;;;2.40;1.02;;;;;;;;;;5072798;28;20028;-56
2021/10/01 00:18:10;;;;;;;0.95;0.82;;;;;;;;;;5069752;28;20048;-57
2021/10/01 00:20:36;;;;;;;1.45;1.20;;;;;;;;;;5072515;28;20031;-58
2021/10/01 00:23:02;;;;;;;2.38;1.17;;;;;;;;;;5072424;28;20462;-57
2021/10/01 00:25:28;;;;;;;1.77;1.10;;;;;;;;;;5064084;28;20079;-55
2021/10/01 00:27:54;;;;;;;1.35;1.00;;;;;;;;;;5070578;28;20637;-57
2021/10/01 00:30:20;;;;;;;2.45;0.80;;;;;;;;;;5069399;28;20086;-54
2021/10/01 00:32:48;;;;;;;1.85;1.10;;;;;;;;;;5072512;28;20115;-52
2021/10/01 00:35:14;;;;;;;1.45;1.00;;;;;;;;;;5071716;28;20025;-54
2021/10/01 00:37:40;;;;;;;1.20;1.02;;;;;;;;;;5071870;28;20025;-54
2021/10/01 00:40:06;;;;;;;2.70;1.05;;;;;;;;;;5070601;28;20032;-53
2021/10/01 00:42:32;;;;;;;1.65;1.08;;;;;;;;;;5065502;28;20116;-56
2021/10/01 00:44:58;;;;;;;2.58;1.00;;;;;;;;;;5071345;28;20035;-55
2021/10/01 00:47:24;;;;;;;3.22;1.38;;;;;;;;;;5070559;28;20377;-52
2021/10/01 00:49:50;;;;;;;1.55;1.10;;;;;;;;;;5068908;28;20574;-55
2021/10/01 00:52:19;;;;;;;3.70;1.23;;;;;;;;;;5071425;28;20024;-54
2021/10/01 00:54:45;;;;;;;2.88;1.30;;;;;;;;;;5067473;28;20117;-57
2021/10/01 00:57:11;;;;;;;1.95;1.10;;;;;;;;;;5066833;28;20029;-57
2021/10/01 00:59:37;;;;;;;2.53;1.00;;;;;;;;;;5067726;28;20029;-56
2021/10/01 01:02:03;;;;;;;1.77;1.20;;;;;;;;;;5075753;28;20035;-54
2021/10/01 01:04:30;;;;;;;2.03;1.05;;;;;;;;;;5071309;28;20144;-51
2021/10/01 01:07:08;;;;;;;3.47;1.45;;;;;;;;;;5070155;28;20440;-53
2021/10/01 01:09:37;;;;;;;1.58;1.05;;;;;;;;;;5070042;28;20600;-54
2021/10/01 01:12:09;;;;;;;1.38;0.95;;;;;;;;;;5071520;28;20055;-53
2021/10/01 01:14:44;;;;;;;1.70;1.10;;;;;;;;;;5070728;28;20020;-55
2021/10/01 01:17:15;;;;;;;3.05;1.10;;;;;;;;;;5071539;28;20036;-57
2021/10/01 01:19:57;;;;;;;1.20;1.00;;;;;;;;;;5065840;28;20046;-52
2021/10/01 01:22:31;;;;;;;2.05;1.33;;;;;;;;;;5061902;28;20068;-56
2021/10/01 01:24:57;;;;;;;4.40;1.10;;;;;;;;;;5058034;28;20074;-55
2021/10/01 01:27:43;;;;;;;2.72;1.35;;;;;;;;;;5068005;28;20416;-54
2021/10/01 01:30:15;;;;;;;4.45;0.95;;;;;;;;;;5064571;28;20566;-52
2021/10/01 01:32:41;;;;;;;5.03;1.25;;;;;;;;;;5067988;28;20083;-53
2021/10/01 01:35:27;;;;;;;1.30;0.93;;;;;;;;;;5071454;28;20029;-53
2021/10/01 01:37:58;;;;;;;1.48;1.20;;;;;;;;;;5066431;28;20037;-51
2021/10/01 01:40:27;;;;;;;1.85;1.17;;;;;;;;;;5067755;28;20078;-55
2021/10/01 01:42:55;;;;;;;3.05;1.40;;;;;;;;;;5066484;28;20057;-55
2021/10/01 01:45:22;;;;;;;1.33;1.08;;;;;;;;;;5070421;28;20043;-52
2021/10/01 01:47:49;;;;;;;4.15;1.60;;;;;;;;;;5061851;28;20131;-53
2021/10/01 01:50:15;;;;;;;3.10;1.20;;;;;;;;;;5069750;28;20806;-51
2021/10/01 01:52:42;;;;;;;2.35;1.10;;;;;;;;;;5071324;28;20039;-55
2021/10/01 01:55:09;;;;;;;2.10;1.40;;;;;;;;;;5070650;28;20029;-53
2021/10/01 01:57:35;;;;;;;2.70;1.10;;;;;;;;;;5070345;28;20029;-55
2021/10/01 02:00:03;;;;;;;1.75;1.30;;;;;;;;;;5068787;28;20031;-54
2021/10/01 02:02:29;;;;;;;3.38;1.08;;;;;;;;;;5069117;28;20030;-57
2021/10/01 02:04:56;;;;;;;1.88;1.65;;;;;;;;;;5071115;28;20035;-58
2021/10/01 02:07:22;;;;;;;2.00;1.33;;;;;;;;;;5071384;28;20039;-57
2021/10/01 02:09:48;;;;;;;2.13;1.25;;;;;;;;;;5070379;28;20024;-55
2021/10/01 02:12:15;;;;;;;3.08;1.40;;;;;;;;;;5070910;28;20071;-58
2021/10/01 02:14:43;;;;;;;2.70;1.10;;;;;;;;;;5075287;28;20465;-53
2021/10/01 02:17:10;;;;;;;3.47;1.48;;;;;;;;;;5074814;28;20103;-53
2021/10/01 02:19:37;;;;;;;2.67;1.20;;;;;;;;;;5067956;28;20098;-57
2021/10/01 02:22:04;;;;;;;1.50;1.15;;;;;;;;;;5074677;28;20065;-52
2021/10/01 02:24:30;;;;;;;5.90;1.45;;;;;;;;;;5073050;28;20521;-52
2021/10/01 02:27:00;;;;;;;3.67;1.58;;;;;;;;;;5072382;28;20021;-52
2021/10/01 02:29:27;;;;;;;3.00;1.50;;;;;;;;;;5071244;28;20460;-54
2021/10/01 02:32:06;;;;;;;1.65;1.10;;;;;;;;;;5071469;28;20027;-53
2021/10/01 02:34:34;;;;;;;1.55;1.42;;;;;;;;;;5072425;28;20094;-51
2021/10/01 02:37:01;;;;;;;2.58;1.73;;;;;;;;;;5073109;28;20111;-53
2021/10/01 02:39:27;;;;;;;2.85;1.50;;;;;;;;;;5071286;28;20481;-57
2021/10/01 02:41:53;;;;;;;2.05;1.15;;;;;;;;;;5074398;28;20032;-56
2021/10/01 02:44:19;;;;;;;2.08;1.50;;;;;;;;;;5073091;28;20032;-56
2021/10/01 02:46:45;;;;;;;3.20;1.48;;;;;;;;;;5070654;28;20052;-58
2021/10/01 02:49:11;;;;;;;2.42;1.77;;;;;;;;;;5065714;28;20028;-52
2021/10/01 02:51:41;;;;;;;1.75;1.08;;;;;;;;;;5073110;28;20048;-56
2021/10/01 02:54:12;;;;;;;3.17;1.60;;;;;;;;;;5068420;28;20043;-58
2021/10/01 02:56:40;;;;;;;5.13;1.50;;;;;;;;;;5073360;28;20485;-53
2021/10/01 02:59:07;;;;;;;4.78;1.63;;;;;;;;;;5067697;28;20085;-55
2021/10/01 03:01:37;;;;;;;2.35;1.42;;;;;;;;;;5070513;28;20115;-54
2021/10/01 03:04:04;;;;;;;2.33;1.40;;;;;;;;;;5074017;28;20032;-51
2021/10/01 03:06:32;;;;;;;1.58;1.40;;;;;;;;;;5068149;28;20028;-52
2021/10/01 03:08:58;;;;;;;4.80;1.70;;;;;;;;;;5073175;28;20017;-53
2021/10/01 03:11:27;;;;;;;1.85;1.30;;;;;;;;;;5071676;28;20104;-54
2021/10/01 03:13:53;;;;;;;5.95;1.40;;;;;;;;;;5073623;28;20036;-53
2021/10/01 03:16:20;;;;;;;2.78;1.80;;;;;;;;;;5070834;28;20115;-51
2021/10/01 03:18:47;;;;;;;2.08;1.30;;;;;;;;;;5072316;28;20063;-52
2021/10/01 03:21:13;;;;;;;4.15;1.65;;;;;;;;;;5072050;28;20047;-57
2021/10/01 03:23:40;;;;;;;4.57;1.63;;;;;;;;;;5073812;28;20448;-57
2021/10/01 03:26:06;;;;;;;1.98;1.33;;;;;;;;;;5070659;28;20159;-56
2021/10/01 03:28:32;;;;;;;3.65;1.80;;;;;;;;;;5070744;28;20036;-55
2021/10/01 03:30:58;;;;;;;3.47;1.83;;;;;;;;;;5072272;28;20447;-55
2021/10/01 03:33:27;;;;;;;3.65;2.03;;;;;;;;;;5070404;28;20050;-54
2021/10/01 03:35:54;;;;;;;2.50;1.30;;;;;;;;;;5071636;28;20465;-52
2021/10/01 03:38:20;;;;;;;3.08;1.70;;;;;;;;;;5069573;28;20020;-57
2021/10/01 03:40:46;;;;;;;3.17;1.40;;;;;;;;;;5070089;28;20064;-52
2021/10/01 03:43:15;;;;;;;5.18;1.60;;;;;;;;;;5063861;28;20032;-52
2021/10/01 03:45:42;;;;;;;4.30;1.50;;;;;;;;;;5067060;28;20025;-52
2021/10/01 03:48:08;;;;;;;4.75;1.83;;;;;;;;;;5067914;28;20021;-55
2021/10/01 03:50:34;;;;;;;4.15;1.75;;;;;;;;;;5070593;28;20473;-56
2021/10/01 03:53:01;;;;;;;3.83;1.73;;;;;;;;;;5073296;28;20035;-53
2021/10/01 03:55:27;;;;;;;4.85;1.70;;;;;;;;;;5068623;28;20107;-53
2021/10/01 03:57:53;;;;;;;3.35;1.90;;;;;;;;;;5069395;28;20024;-57
2021/10/01 04:00:20;;;;;;;4.65;1.80;;;;;;;;;;5070519;28;20032;-54
2021/10/01 04:02:46;;;;;;;3.00;2.22;;;;;;;;;;5072784;28;20119;-57
2021/10/01 04:05:12;;;;;;;3.83;1.52;;;;;;;;;;5069709;28;20024;-57
2021/10/01 04:07:38;;;;;;;2.50;1.85;;;;;;;;;;5072530;28;20434;-52
2021/10/01 04:10:05;;;;;;;2.42;1.92;;;;;;;;;;5064129;28;20070;-55
2021/10/01 04:12:32;;;;;;;1.95;1.52;;;;;;;;;;5069641;28;20029;-57
2021/10/01 04:14:58;;;;;;;2.03;1.55;;;;;;;;;;5070495;28;20031;-52
2021/10/01 04:17:24;;;;;;;2.50;1.70;;;;;;;;;;5063200;28;20435;-53
2021/10/01 04:19:50;;;;;;;1.80;1.35;;;;;;;;;;5070714;28;20074;-52
2021/10/01 04:22:16;;;;;;;2.25;1.50;;;;;;;;;;5062896;28;20120;-51
2021/10/01 04:24:42;;;;;;;2.58;1.40;;;;;;;;;;5068132;28;20033;-55
2021/10/01 04:27:08;;;;;;;9.48;2.58;;;;;;;;;;5067663;28;20032;-53
2021/10/01 04:29:34;;;;;;;2.22;1.40;;;;;;;;;;5068668;28;20435;-51
2021/10/01 04:32:04;;;;;;;2.17;1.42;;;;;;;;;;5065518;28;20103;-53
2021/10/01 04:34:33;;;;;;;2.33;1.58;;;;;;;;;;5066460;28;20032;-54
2021/10/01 04:36:59;;;;;;;5.78;1.50;;;;;;;;;;5070199;28;20035;-54
2021/10/01 04:39:25;;;;;;;2.33;1.38;;;;;;;;;;5071427;28;20029;-56
2021/10/01 04:41:51;;;;;;;8.63;1.63;;;;;;;;;;5062876;28;20382;-53
2021/10/01 04:44:17;;;;;;;5.75;2.00;;;;;;;;;;5069690;28;20067;-52
2021/10/01 04:46:44;;;;;;;3.25;1.60;;;;;;;;;;5070676;28;20028;-53
2021/10/01 04:49:10;;;;;;;1.48;1.25;;;;;;;;;;5063337;28;20091;-52
2021/10/01 04:51:36;;;;;;;2.40;1.98;;;;;;;;;;5069623;28;20037;-55
2021/10/01 04:54:02;;;;;;;6.60;2.00;;;;;;;;;;5069057;28;20063;-54
2021/10/01 04:56:28;;;;;;;1.92;1.52;;;;;;;;;;5071777;28;20033;-53
2021/10/01 04:58:54;;;;;;;3.97;1.80;;;;;;;;;;5069617;28;20161;-52
2021/10/01 05:01:20;;;;;;;3.53;2.15;;;;;;;;;;5065397;28;20365;-53
2021/10/01 05:03:46;;;;;;;4.70;1.65;;;;;;;;;;5074179;28;20056;-53
2021/10/01 05:06:12;;;;;;;2.60;1.40;;;;;;;;;;5068212;28;20101;-54
2021/10/01 05:08:38;;;;;;;3.13;1.67;;;;;;;;;;5063121;28;20147;-53
2021/10/01 05:11:04;;;;;;;2.53;1.45;;;;;;;;;;5063973;28;20029;-55
2021/10/01 05:13:30;;;;;;;1.40;1.27;;;;;;;;;;5070761;28;20037;-57
2021/10/01 05:15:56;;;;;;;2.83;1.52;;;;;;;;;;5071264;28;20036;-54
2021/10/01 05:18:23;;;;;;;2.65;1.20;;;;;;;;;;5065805;28;20052;-55
2021/10/01 05:20:49;;;;;;;2.85;1.65;;;;;;;;;;5067942;28;20506;-52
2021/10/01 05:23:15;;;;;;;2.75;1.80;;;;;;;;;;5064764;28;20033;-54
2021/10/01 05:25:41;;;;;;;2.38;1.58;;;;;;;;;;5066387;28;20046;-53
2021/10/01 05:28:07;;;;;;;2.88;1.55;;;;;;;;;;5069876;28;20021;-51
2021/10/01 05:30:33;;;;;;;4.50;1.50;;;;;;;;;;5071704;28;20031;-52
2021/10/01 05:33:05;;;;;;;2.35;1.30;;;;;;;;;;5067378;28;20021;-53
2021/10/01 05:35:31;;;;;;;2.92;1.42;;;;;;;;;;5064971;28;20597;-53
2021/10/01 05:37:57;;;;;;;2.17;1.30;;;;;;;;;;5070358;28;20467;-55
2021/10/01 05:40:23;;;;;;;2.50;1.73;;;;;;;;;;5063115;28;20033;-51
2021/10/01 05:42:49;;;;;;;2.13;1.60;;;;;;;;;;5065257;28;20392;-57
2021/10/01 05:45:15;;;;;;;2.60;1.70;;;;;;;;;;5066847;28;20028;-51
2021/10/01 05:47:41;;;;;;;6.78;1.40;;;;;;;;;;5068069;28;20111;-57
2021/10/01 05:50:12;;;;;;;2.35;1.25;;;;;;;;;;5068201;28;20020;-55
2021/10/01 05:52:49;;;;;;;4.70;1.20;;;;;;;;;;5070101;28;20028;-53
2021/10/01 05:55:15;;;;;;;3.95;1.67;;;;;;;;;;5063869;28;20021;-53
2021/10/01 05:57:43;;;;;;;2.50;1.50;;;;;;;;;;5070483;28;20029;-55
2021/10/01 06:00:09;;;;;;;3.85;1.33;;;;;;;;;;5064614;28;20059;-56
2021/10/01 06:02:35;;;;;;;3.63;1.40;;;;;;;;;;5072018;28;20028;-56
2021/10/01 06:05:01;;;;;;;3.92;1.60;;;;;;;;;;5062278;28;20021;-53
2021/10/01 06:07:27;;;;;;;2.60;1.45;;;;;;;;;;5066981;28;20037;-54
2021/10/01 06:09:53;;;;;;;3.15;1.50;;;;;;;;;;5068261;28;20052;-54
2021/10/01 06:12:19;;;;;;;2.85;1.70;;;;;;;;;;5072525;28;20024;-55
2021/10/01 06:14:45;;;;;;;4.70;1.20;;;;;;;;;;5068788;28;20103;-52
2021/10/01 06:17:15;;;;;;;2.75;1.30;;;;;;;;;;5064795;28;20021;-52
2021/10/01 06:19:43;;;;;;;4.53;1.70;;;;;;;;;;5069105;28;20487;-51
2021/10/01 06:22:10;;;;;;;2.92;1.45;;;;;;;;;;5067196;28;20040;-55
2021/10/01 06:24:36;;;;;;;2.10;1.42;;;;;;;;;;5071507;28;20030;-54
2021/10/01 06:27:03;;;;;;;1.58;0.85;;;;;;;;;;5065570;28;20033;-57
2021/10/01 06:29:28;;;;;;;2.17;1.50;;;;;;;;;;5068861;28;20021;-56
2021/10/01 06:31:55;;;;;;;3.00;1.25;;;;;;;;;;5069227;28;20824;-55
2021/10/01 06:34:21;;;;;;;3.40;1.27;;;;;;;;;;5065881;28;20024;-55
2021/10/01 06:36:47;;;;;;;1.40;1.30;;;;;;;;;;5068128;28;20048;-55
2021/10/01 06:39:13;;;;;;;2.15;1.05;;;;;;;;;;5063989;28;20032;-51
2021/10/01 06:41:40;;;;;;;2.13;1.40;;;;;;;;;;5067262;28;20028;-53
2021/10/01 06:44:07;;;;;;;3.40;1.40;;;;;;;;;;5070807;28;20032;-55
2021/10/01 06:46:48;;;;;;;3.13;0.90;;;;;;;;;;5066025;28;20070;-55
2021/10/01 06:49:35;;;;;;;3.50;1.23;;;;;;;;;;5070886;28;20033;-51
2021/10/01 06:52:32;;;;;;;2.75;1.20;;;;;;;;;;5069530;28;20020;-57
2021/10/01 07:36:33;;;;;;;1.67;0.90;;;;;;;;;;5068811;28;20039;-55
2021/10/01 07:39:18;;;;;;;1.85;0.95;;;;;;;;;;5073116;28;20032;-52
2021/10/01 08:20:43;;;;;;;1.13;0.60;;;;;;;;;;5068826;28;20075;-52
2021/10/01 08:23:10;;;;;;;1.38;0.75;;;;;;;;;;5067276;28;20437;-54
2021/10/01 08:25:36;;;;;;;1.92;0.93;;;;;;;;;;5068437;28;20032;-51
2021/10/01 08:28:03;;;;;;;1.05;0.65;;;;;;;;;;5071157;28;20029;-53
2021/10/01 08:30:29;;;;;;;1.38;0.60;;;;;;;;;;5073715;28;20528;-54
2021/10/01 08:32:55;;;;;;;1.13;0.55;;;;;;;;;;5065672;28;20120;-51
2021/10/01 08:35:24;;;;;;;1.05;0.55;;;;;;;;;;5072348;28;20593;-54
2021/10/01 08:37:50;;;;;;;1.33;0.60;;;;;;;;;;5070950;28;20146;-55
2021/10/01 08:40:16;;;;;;;4.75;0.88;;;;;;;;;;5067709;28;20071;-56
2021/10/01 08:42:43;;;;;;;1.60;0.75;;;;;;;;;;5062821;28;20075;-55
2021/10/01 08:45:10;;;;;;;4.70;0.73;;;;;;;;;;5066399;28;20589;-56
2021/10/01 08:47:36;;;;;;;0.95;0.63;;;;;;;;;;5057592;28;20433;-53
2021/10/01 08:50:03;;;;;;;5.78;0.77;;;;;;;;;;5065257;28;20036;-55
2021/10/01 08:52:29;;;;;;;1.67;0.70;;;;;;;;;;5072025;28;20020;-55
2021/10/01 08:54:55;;;;;;;4.35;1.52;;;;;;;;;;5072074;28;20023;-53
2021/10/01 08:57:21;;;;;;;2.05;0.60;;;;;;;;;;5072126;28;20035;-55
2021/10/01 08:59:47;;;;;;;0.75;0.50;;;;;;;;;;5071942;28;20868;-53
2021/10/01 09:02:14;;;;;;;1.17;0.47;;;;;;;;;;5078455;28;20016;-51
2021/10/01 09:04:40;;;;;;;0.50;0.40;;;;;;;;;;5072743;28;20035;-52
2021/10/01 09:07:06;;;;;;;1.48;0.60;;;;;;;;;;5072224;28;20020;-52
2021/10/01 09:09:40;;;;;;;0.70;0.40;;;;;;;;;;5070584;28;20108;-56
2021/10/01 09:12:06;;;;;;;2.33;0.60;;;;;;;;;;5071694;28;20016;-54
2021/10/01 09:14:41;;;;;;;2.03;0.75;;;;;;;;;;5071676;28;20132;-54
2021/10/01 09:17:15;;;;;;;2.25;0.70;;;;;;;;;;5072008;28;20025;-54
2021/10/01 09:19:42;;;;;;;2.28;0.70;;;;;;;;;;5071220;28;20102;-57
2021/10/01 09:22:08;;;;;;;1.33;0.45;;;;;;;;;;5070461;28;20861;-55
2021/10/01 09:24:35;;;;;;;0.95;0.47;;;;;;;;;;5070030;28;20047;-55
2021/10/01 09:27:01;;;;;;;1.52;0.30;;;;;;;;;;5068703;28;20107;-56
2021/10/01 09:29:31;;;;;;;2.75;0.60;;;;;;;;;;5071583;28;20020;-53
2021/10/01 09:31:58;;;;;;;1.27;0.82;;;;;;;;;;5071705;28;20033;-53
2021/10/01 09:34:24;;;;;;;0.55;0.52;;;;;;;;;;5071879;28;20021;-51
2021/10/01 09:37:02;;;;;;;0.50;0.30;;;;;;;;;;5071503;28;20024;-51
2021/10/01 09:39:30;;;;;;;2.72;0.50;;;;;;;;;;5069530;28;20108;-55
2021/10/01 09:41:57;;;;;;;1.08;0.50;;;;;;;;;;5071664;28;20020;-58
2021/10/01 09:44:27;;;;;;;2.47;0.40;;;;;;;;;;5068522;28;20032;-53
2021/10/01 09:46:53;;;;;;;2.20;0.40;;;;;;;;;;5071096;28;20020;-55
2021/10/01 09:49:28;;;;;;;0.77;0.47;;;;;;;;;;5070927;28;20041;-54
2021/10/01 09:51:55;;;;;;;1.58;0.57;;;;;;;;;;5071384;28;20032;-55
2021/10/01 09:54:24;;;;;;;0.57;0.40;;;;;;;;;;5071775;28;20151;-53
2021/10/01 09:56:49;;;;;;;2.28;0.45;;;;;;;;;;5071797;28;20139;-54
2021/10/01 09:59:19;;;;;;;2.45;0.50;;;;;;;;;;5071002;28;20484;-54
2021/10/01 10:02:06;;;;;;;0.90;0.45;;;;;;;;;;5072502;28;20024;-54
2021/10/01 10:04:33;;;;;;;1.38;0.55;;;;;;;;;;5054076;28;20346;-52
2021/10/01 10:07:19;;;;;;;3.38;0.50;;;;;;;;;;5071031;28;20036;-52
2021/10/01 10:09:47;;;;;;;2.30;0.40;;;;;;;;;;5064018;28;20073;-52
2021/10/01 10:12:15;;;;;;;1.98;0.88;;;;;;;;;;5070939;28;20051;-51
2021/10/01 10:14:46;;;;;;;0.55;0.20;;;;;;;;;;5070233;28;20515;-51
2021/10/01 10:17:13;;;;;;;1.23;0.70;;;;;;;;;;5071202;28;20119;-52
2021/10/01 10:19:39;;;;;;;0.70;0.30;;;;;;;;;;5070659;28;20048;-54
2021/10/01 10:22:05;;;;;;;2.08;0.40;;;;;;;;;;5070940;28;20036;-51
2021/10/01 10:24:30;;;;;;;0.55;0.20;;;;;;;;;;5072236;28;20130;-57
2021/10/01 10:26:57;;;;;;;0.35;0.22;;;;;;;;;;5075226;28;20106;-51
2021/10/01 10:29:24;;;;;;;0.45;0.22;;;;;;;;;;5075006;28;20024;-53
2021/10/01 10:31:50;;;;;;;0.68;0.13;;;;;;;;;;5075076;28;20021;-52
2021/10/01 10:34:18;;;;;;;1.88;0.40;;;;;;;;;;5075090;28;20386;-51
2021/10/01 10:36:45;;;;;;;0.80;0.30;;;;;;;;;;5074530;28;20031;-55
2021/10/01 10:39:11;;;;;;;1.73;0.30;;;;;;;;;;5072589;28;20461;-55
2021/10/01 10:41:44;;;;;;;0.55;0.30;;;;;;;;;;5075073;28;20541;-54
2021/10/01 10:44:11;;;;;;;0.70;0.30;;;;;;;;;;5074788;28;20111;-52
2021/10/01 10:46:37;;;;;;;1.40;0.60;;;;;;;;;;5074668;28;20532;-53
2021/10/01 10:49:32;;;;;;;1.02;0.28;;;;;;;;;;5074045;28;20103;-54
2021/10/01 10:51:59;;;;;;;0.63;0.22;;;;;;;;;;5073178;28;20170;-51
2021/10/01 10:54:28;;;;;;;2.58;0.28;;;;;;;;;;5074746;28;20028;-53
2021/10/01 10:57:13;;;;;;;3.05;0.52;;;;;;;;;;5074525;28;20520;-53
2021/10/01 10:59:39;;;;;;;0.98;0.30;;;;;;;;;;5074011;28;20029;-55
2021/10/01 11:02:33;;;;;;;0.10;0.10;;;;;;;;;;5074382;28;20411;-51
2021/10/01 11:05:18;;;;;;;0.68;0.30;;;;;;;;;;5071397;28;20070;-54
2021/10/01 11:07:49;;;;;;;0.93;0.30;;;;;;;;;;5072503;28;20024;-54
2021/10/01 11:10:33;;;;;;;1.08;0.28;;;;;;;;;;5073737;28;20020;-53
2021/10/01 11:13:18;;;;;;;0.38;0.20;;;;;;;;;;5074392;28;20094;-54
2021/10/01 11:16:04;;;;;;;2.15;0.40;;;;;;;;;;5074153;28;20119;-51
2021/10/01 11:18:29;;;;;;;0.52;0.25;;;;;;;;;;5072278;28;20514;-55
2021/10/01 11:20:55;;;;;;;0.63;0.20;;;;;;;;;;5074123;28;20103;-54
2021/10/01 11:23:22;;;;;;;0.82;0.35;;;;;;;;;;5074092;28;20017;-52
2021/10/01 11:25:48;;;;;;;1.05;0.30;;;;;;;;;;5072600;28;20055;-54
2021/10/01 11:28:14;;;;;;;1.50;0.20;;;;;;;;;;5073654;28;20052;-53
2021/10/01 11:30:42;;;;;;;1.55;0.30;;;;;;;;;;5074041;28;20574;-55
2021/10/01 11:33:09;;;;;;;1.23;0.28;;;;;;;;;;5073943;28;20756;-55
2021/10/01 11:35:44;;;;;;;0.82;0.32;;;;;;;;;;5070422;28;20033;-53
2021/10/01 11:38:18;;;;;;;1.23;0.38;;;;;;;;;;5076497;28;20092;-54
2021/10/01 11:40:45;;;;;;;2.63;0.30;;;;;;;;;;5075138;28;20060;-54
2021/10/01 11:43:11;;;;;;;0.30;0.20;;;;;;;;;;5075105;28;20107;-53
2021/10/01 11:45:38;;;;;;;3.60;0.40;;;;;;;;;;5066500;28;20410;-50
2021/10/01 11:48:09;;;;;;;0.60;0.10;;;;;;;;;;5073035;28;20484;-52
2021/10/01 11:50:43;;;;;;;1.35;0.30;;;;;;;;;;5067937;28;20025;-53
2021/10/01 11:53:16;;;;;;;0.40;0.28;;;;;;;;;;5070706;28;20388;-51
2021/10/01 11:55:49;;;;;;;0.60;0.20;;;;;;;;;;5073307;28;20100;-52
2021/10/01 11:58:16;;;;;;;0.77;0.30;;;;;;;;;;5069324;28;20036;-53
2021/10/01 12:00:42;;;;;;;1.33;0.38;;;;;;;;;;5073037;28;20043;-52
2021/10/01 12:03:12;;;;;;;0.55;0.25;;;;;;;;;;5077603;28;20040;-51
2021/10/01 12:05:38;;;;;;;0.40;0.20;;;;;;;;;;5073052;28;20123;-51
2021/10/01 12:08:08;;;;;;;1.85;0.22;;;;;;;;;;5072833;28;20029;-51
2021/10/01 12:10:34;;;;;;;1.45;0.20;;;;;;;;;;5072913;28;20024;-52
2021/10/01 12:13:01;;;;;;;0.85;0.20;;;;;;;;;;5072721;28;20020;-51
2021/10/01 12:15:42;;;;;;;0.45;0.17;;;;;;;;;;5072738;28;20016;-53
2021/10/01 12:18:27;;;;;;;1.25;0.50;;;;;;;;;;5065663;28;20055;-51
2021/10/01 12:20:53;;;;;;;0.50;0.30;;;;;;;;;;5071141;28;20017;-51
2021/10/01 12:23:19;;;;;;;0.55;0.10;;;;;;;;;;5068279;28;20031;-51
2021/10/01 12:25:45;;;;;;;0.35;0.20;;;;;;;;;;5066504;28;20032;-52
2021/10/01 12:28:11;;;;;;;0.57;0.25;;;;;;;;;;5060347;28;20032;-52
2021/10/01 12:30:37;;;;;;;0.85;0.20;;;;;;;;;;5070294;28;20115;-51
2021/10/01 12:33:03;;;;;;;0.82;0.13;;;;;;;;;;5071860;28;20091;-53
2021/10/01 12:35:29;;;;;;;1.50;0.10;;;;;;;;;;5072434;28;20399;-56
2021/10/01 12:37:55;;;;;;;0.28;0.05;;;;;;;;;;5068555;28;20036;-55
2021/10/01 12:40:21;;;;;;;0.57;0.10;;;;;;;;;;5069450;28;20640;-52
2021/10/01 12:42:52;;;;;;;1.77;0.25;;;;;;;;;;5070196;28;20033;-56
2021/10/01 12:45:19;;;;;;;1.45;0.17;;;;;;;;;;5067300;28;20032;-56
2021/10/01 12:47:45;;;;;;;0.65;0.20;;;;;;;;;;5066824;28;20024;-55
2021/10/01 12:50:18;;;;;;;1.95;0.10;;;;;;;;;;5064762;28;20048;-56
2021/10/01 12:52:57;;;;;;;1.27;0.20;;;;;;;;;;5067365;28;21746;-56
2021/10/01 12:55:23;;;;;;;0.10;0.00;;;;;;;;;;5072118;28;20520;-59
2021/10/01 12:57:50;;;;;;;1.00;0.30;;;;;;;;;;5066271;28;20068;-56
2021/10/01 13:00:16;;;;;;;0.45;0.20;;;;;;;;;;5063125;28;20028;-56
2021/10/01 13:02:42;;;;;;;1.23;0.30;;;;;;;;;;5072808;28;20040;-57
2021/10/01 13:05:21;;;;;;;1.98;0.20;;;;;;;;;;5071755;28;20024;-59
2021/10/01 13:07:53;;;;;;;0.35;0.10;;;;;;;;;;5068803;28;20024;-57
2021/10/01 13:10:21;;;;;;;0.98;0.22;;;;;;;;;;5070167;28;20671;-58
2021/10/01 13:12:50;;;;;;;1.35;0.22;;;;;;;;;;5062101;28;20073;-57
2021/10/01 13:15:18;;;;;;;0.75;0.10;;;;;;;;;;5071739;28;20043;-57
2021/10/01 13:17:58;;;;;;;0.17;0.00;;;;;;;;;;5070122;28;20108;-57
2021/10/01 13:20:25;;;;;;;0.22;0.10;;;;;;;;;;5067821;28;20119;-53
2021/10/01 13:23:06;;;;;;;0.80;0.38;;;;;;;;;;5071471;28;20016;-56
2021/10/01 13:25:34;;;;;;;0.50;0.00;;;;;;;;;;5068742;28;20025;-56
2021/10/01 13:28:02;;;;;;;0.98;0.08;;;;;;;;;;5065685;28;20104;-57
2021/10/01 13:30:28;;;;;;;0.10;0.10;;;;;;;;;;5068515;28;20037;-56
2021/10/01 13:32:54;;;;;;;0.20;0.10;;;;;;;;;;5065375;28;20037;-58
2021/10/01 13:35:20;;;;;;;0.88;0.20;;;;;;;;;;5073092;28;20032;-54
2021/10/01 13:37:47;;;;;;;0.55;0.15;;;;;;;;;;5068478;28;20036;-56
2021/10/01 13:40:14;;;;;;;2.25;0.20;;;;;;;;;;5067848;28;20358;-57
2021/10/01 13:42:40;;;;;;;2.38;0.20;;;;;;;;;;5068473;28;20028;-54
2021/10/01 13:45:06;;;;;;;0.60;0.20;;;;;;;;;;5070930;28;20075;-56
2021/10/01 13:47:32;;;;;;;0.93;0.20;;;;;;;;;;5067470;28;20403;-55
2021/10/01 13:49:59;;;;;;;0.43;0.20;;;;;;;;;;5069534;28;20039;-57
2021/10/01 13:52:26;;;;;;;0.93;0.10;;;;;;;;;;5070843;28;20060;-55
2021/10/01 13:54:52;;;;;;;0.65;0.10;;;;;;;;;;5068245;28;20036;-54
2021/10/01 13:57:18;;;;;;;0.65;0.30;;;;;;;;;;5064452;28;20094;-54
2021/10/01 13:59:44;;;;;;;1.50;0.20;;;;;;;;;;5066049;28;20107;-54
2021/10/01 14:02:10;;;;;;;0.30;0.10;;;;;;;;;;5079426;28;20077;-54
2021/10/01 14:04:36;;;;;;;0.30;0.20;;;;;;;;;;5075496;28;20021;-55
2021/10/01 14:07:02;;;;;;;1.23;0.45;;;;;;;;;;5072508;28;20395;-54
2021/10/01 14:09:28;;;;;;;0.47;0.20;;;;;;;;;;5073803;28;20032;-55
2021/10/01 14:11:54;;;;;;;0.10;0.10;;;;;;;;;;5072873;28;20582;-54
2021/10/01 14:14:20;;;;;;;0.50;0.10;;;;;;;;;;5074213;28;20029;-55
2021/10/01 14:16:46;;;;;;;1.70;0.22;;;;;;;;;;5073503;28;20056;-54
2021/10/01 14:19:12;;;;;;;0.55;0.10;;;;;;;;;;5073464;28;20116;-56
2021/10/01 14:21:39;;;;;;;0.35;0.10;;;;;;;;;;5062849;28;20419;-57
2021/10/01 14:24:05;;;;;;;0.50;0.13;;;;;;;;;;5074077;28;20017;-54
2021/10/01 14:26:31;;;;;;;0.52;0.10;;;;;;;;;;5072737;28;20022;-54
2021/10/01 14:28:58;;;;;;;0.47;0.10;;;;;;;;;;5074612;28;20034;-56
2021/10/01 14:31:24;;;;;;;0.82;0.30;;;;;;;;;;5069388;28;20416;-55
2021/10/01 14:33:50;;;;;;;0.22;0.10;;;;;;;;;;5070419;28;20028;-54
2021/10/01 14:36:16;;;;;;;0.38;0.10;;;;;;;;;;5074384;28;20039;-53
2021/10/01 14:38:42;;;;;;;0.80;0.10;;;;;;;;;;5068264;28;20054;-53
2021/10/01 14:41:08;;;;;;;0.55;0.10;;;;;;;;;;5072333;28;20031;-53
2021/10/01 14:43:36;;;;;;;0.80;0.20;;;;;;;;;;5073451;28;20423;-54
2021/10/01 14:46:02;;;;;;;1.20;0.25;;;;;;;;;;5074158;28;20078;-52
2021/10/01 14:48:29;;;;;;;0.20;0.10;;;;;;;;;;5074215;28;20094;-53
2021/10/01 14:50:55;;;;;;;0.43;0.40;;;;;;;;;;5053436;28;20029;-53
2021/10/01 14:53:21;;;;;;;0.30;0.20;;;;;;;;;;5070864;28;20416;-53
2021/10/01 14:55:47;;;;;;;0.40;0.10;;;;;;;;;;5068529;28;20028;-52
2021/10/01 14:58:13;;;;;;;0.20;0.10;;;;;;;;;;5073658;28;20459;-50
2021/10/01 15:00:39;;;;;;;1.45;0.22;;;;;;;;;;5072933;28;20421;-52
2021/10/01 15:03:05;;;;;;;;;;;;;;;;;;5073160;28;20067;-55
2021/10/01 15:05:31;;;;;;;0.98;0.20;;;;;;;;;;5069971;28;20016;-56
2021/10/01 15:07:57;;;;;;;0.50;0.22;;;;;;;;;;5069864;28;20119;-53
2021/10/01 15:10:24;;;;;;;0.52;0.20;;;;;;;;;;5066613;28;20036;-53
2021/10/01 15:12:50;;;;;;;2.05;0.20;;;;;;;;;;5066539;28;20032;-52
2021/10/01 15:15:16;;;;;;;0.32;0.20;;;;;;;;;;5066510;28;20376;-53
2021/10/01 15:17:42;;;;;;;0.25;0.20;;;;;;;;;;5067209;28;20032;-55
2021/10/01 15:20:09;;;;;;;1.15;0.20;;;;;;;;;;5062796;28;20028;-51
2021/10/01 15:22:35;;;;;;;2.58;0.30;;;;;;;;;;5065572;28;20079;-53
2021/10/01 15:25:01;;;;;;;0.73;0.10;;;;;;;;;;5069155;28;20021;-55
2021/10/01 15:27:27;;;;;;;0.20;0.10;;;;;;;;;;5066081;28;20038;-54
2021/10/01 15:30:03;;;;;;;1.23;0.40;;;;;;;;;;5067336;28;20020;-56
2021/10/01 15:32:29;;;;;;;1.20;0.20;;;;;;;;;;5075325;28;20672;-53
2021/10/01 15:34:55;;;;;;;1.70;0.50;;;;;;;;;;5065190;28;20029;-54
2021/10/01 15:37:21;;;;;;;0.85;0.20;;;;;;;;;;5073232;28;20012;-52
2021/10/01 15:39:47;;;;;;;1.10;0.40;;;;;;;;;;5070086;28;20182;-53
2021/10/01 15:42:13;;;;;;;0.93;0.35;;;;;;;;;;5071538;28;20024;-51
2021/10/01 15:44:39;;;;;;;1.58;0.52;;;;;;;;;;5069025;28;20400;-50
2021/10/01 15:47:09;;;;;;;1.02;0.30;;;;;;;;;;5076940;28;20469;-56
2021/10/01 15:49:35;;;;;;;0.88;0.35;;;;;;;;;;5072070;28;20029;-53
2021/10/01 15:52:01;;;;;;;0.73;0.40;;;;;;;;;;5069865;28;20039;-53
2021/10/01 15:54:27;;;;;;;0.77;0.32;;;;;;;;;;5068220;28;20151;-55
2021/10/01 15:56:53;;;;;;;0.57;0.30;;;;;;;;;;5067861;28;20024;-53
2021/10/01 15:59:22;;;;;;;0.57;0.30;;;;;;;;;;5070659;28;20353;-50
2021/10/01 16:01:48;;;;;;;0.35;0.20;;;;;;;;;;5072150;28;20024;-54
2021/10/01 16:04:14;;;;;;;0.98;0.40;;;;;;;;;;5071841;28;20036;-55
2021/10/01 16:06:40;;;;;;;0.93;0.50;;;;;;;;;;5068216;28;20028;-55
2021/10/01 16:09:06;;;;;;;0.73;0.30;;;;;;;;;;5059954;28;20029;-53